Time;durP1;ratioP1;P1;durP2;ratioP2;P2;SDS_P1;SDS_P2;PMS_P1;PMS_P2;Temp;Humidity;BMP_temperature;BMP_pressure;BME280_temperature;BME280_humidity;BME280_pressure;Samples;Min_cycle;Max_cycle;Signal;HPM_P1;HPM_P2
2023/07/11 00:01:17;;;;;;;;;;;15.70;63.60;;;;;;4120874;28;20017;-86
2023/07/11 00:03:38;;;;;;;;;;;15.70;63.60;;;;;;4132162;28;19910;-84
2023/07/11 00:06:00;;;;;;;;;;;15.70;63.50;;;;;;4117463;28;19928;-86
2023/07/11 00:08:20;;;;;;;;;;;15.80;63.60;;;;;;4115293;28;20020;-85
2023/07/11 00:10:41;;;;;;;;;;;15.70;63.30;;;;;;4115895;28;20063;-85
2023/07/11 00:13:02;;;;;;;;;;;15.60;64.30;;;;;;4117800;28;20013;-85
2023/07/11 00:15:23;;;;;;;;;;;15.60;64.90;;;;;;4119254;28;19921;-87
2023/07/11 00:17:44;;;;;;;;;;;15.60;65.00;;;;;;4134071;28;19924;-84
2023/07/11 00:20:08;;;;;;;;;;;15.60;64.50;;;;;;4136973;28;19945;-87
2023/07/11 00:22:09;;;;;;;;;;;15.60;65.00;;;;;;4125255;28;19910;-85
2023/07/11 00:24:10;;;;;;;;;;;15.60;64.80;;;;;;4135850;28;19971;-85
2023/07/11 00:26:12;;;;;;;;;;;15.60;64.90;;;;;;4109631;28;20280;-86
2023/07/11 00:28:30;;;;;;;;;;;15.50;66.30;;;;;;4124189;28;19928;-85
2023/07/11 00:30:31;;;;;;;;;;;15.40;65.50;;;;;;4126232;28;19913;-85
2023/07/11 00:32:52;;;;;;;;;;;15.50;66.10;;;;;;4137693;28;19917;-85
2023/07/11 00:35:12;;;;;;;;;;;15.50;66.40;;;;;;4118307;28;20106;-85
2023/07/11 00:37:34;;;;;;;;;;;15.50;66.50;;;;;;4129321;28;19922;-86
2023/07/11 00:39:54;;;;;;;;;;;15.50;66.80;;;;;;4138870;28;19917;-85
2023/07/11 00:42:15;;;;;;;;;;;15.40;66.30;;;;;;4123340;28;19928;-85
2023/07/11 00:45:03;;;;;;;;;;;15.40;66.80;;;;;;4122551;28;20004;-85
2023/07/11 00:47:25;;;;;;;;;;;15.40;66.70;;;;;;4121569;28;20398;-85
2023/07/11 00:49:26;;;;;;;;;;;15.40;66.80;;;;;;4126664;28;19921;-86
2023/07/11 00:51:29;;;;;;;;;;;15.30;67.60;;;;;;4119741;28;20516;-85
2023/07/11 00:53:31;;;;;;;;;;;15.40;68.50;;;;;;4106470;28;19948;-85
2023/07/11 00:55:32;;;;;;;;;;;15.40;70.10;;;;;;4124189;28;20117;-85
2023/07/11 00:57:52;;;;;;;;;;;15.30;69.50;;;;;;4131465;28;19917;-86
2023/07/11 01:00:13;;;;;;;;;;;15.30;69.40;;;;;;4122471;28;20396;-83
2023/07/11 01:02:34;;;;;;;;;;;15.30;68.80;;;;;;4122505;28;19925;-85
2023/07/11 01:04:55;;;;;;;;;;;15.30;68.30;;;;;;4121674;28;19918;-88
2023/07/11 01:07:18;;;;;;;;;;;15.30;68.10;;;;;;4123275;28;20012;-85
2023/07/11 01:09:38;;;;;;;;;;;15.20;68.00;;;;;;4122435;28;19980;-86
2023/07/11 01:12:00;;;;;;;;;;;15.20;67.80;;;;;;4117602;28;20426;-86
2023/07/11 01:14:21;;;;;;;;;;;15.20;67.80;;;;;;4122462;28;20004;-87
2023/07/11 01:16:45;;;;;;;;;;;15.20;67.60;;;;;;4118251;28;19917;-86
2023/07/11 01:19:05;;;;;;;;;;;15.20;67.60;;;;;;4139266;28;19964;-86
2023/07/11 01:21:26;;;;;;;;;;;15.20;67.60;;;;;;4119785;28;20012;-86
2023/07/11 01:23:47;;;;;;;;;;;15.10;67.90;;;;;;4116754;28;19984;-86
2023/07/11 01:26:08;;;;;;;;;;;15.10;68.20;;;;;;4125661;28;19948;-85
2023/07/11 01:28:28;;;;;;;;;;;15.10;68.00;;;;;;4119766;28;19909;-84
2023/07/11 01:30:49;;;;;;;;;;;15.10;68.90;;;;;;4122111;28;19918;-84
2023/07/11 01:33:09;;;;;;;;;;;15.10;68.30;;;;;;4121693;28;19928;-85
2023/07/11 01:35:36;;;;;;;;;;;15.00;68.00;;;;;;4121193;28;19925;-85
2023/07/11 01:37:57;;;;;;;;;;;15.00;68.00;;;;;;4122049;28;19918;-86
2023/07/11 01:40:17;;;;;;;;;;;15.00;67.80;;;;;;4123229;28;19937;-86
2023/07/11 01:42:39;;;;;;;;;;;15.00;67.80;;;;;;4122317;28;20028;-87
2023/07/11 01:45:00;;;;;;;;;;;15.00;67.90;;;;;;4126877;28;19922;-87
2023/07/11 01:47:02;;;;;;;;;;;15.00;67.90;;;;;;4106994;28;19925;-86
2023/07/11 01:49:02;;;;;;;;;;;15.00;67.90;;;;;;4118125;28;19933;-87
2023/07/11 01:51:03;;;;;;;;;;;15.00;68.00;;;;;;4101437;28;19918;-86
2023/07/11 01:53:04;;;;;;;;;;;14.90;68.00;;;;;;4112823;28;19965;-86
2023/07/11 01:55:05;;;;;;;;;;;14.90;68.00;;;;;;4107275;28;19941;-86
2023/07/11 01:57:07;;;;;;;;;;;14.90;67.80;;;;;;4123057;28;19914;-85
2023/07/11 01:59:11;;;;;;;;;;;14.90;67.70;;;;;;4119746;28;19941;-85
2023/07/11 02:01:12;;;;;;;;;;;14.90;67.60;;;;;;4125769;28;19914;-86
2023/07/11 02:03:32;;;;;;;;;;;14.90;67.80;;;;;;4116519;28;19953;-85
2023/07/11 02:05:33;;;;;;;;;;;14.90;67.80;;;;;;4120482;28;20001;-87
2023/07/11 02:07:54;;;;;;;;;;;14.80;67.80;;;;;;4123654;28;20001;-86
2023/07/11 02:10:14;;;;;;;;;;;14.80;67.80;;;;;;4122812;28;19972;-85
2023/07/11 02:12:35;;;;;;;;;;;14.80;67.70;;;;;;4124402;28;19925;-85
2023/07/11 02:14:56;;;;;;;;;;;14.90;67.10;;;;;;4123290;28;19976;-87
2023/07/11 02:17:16;;;;;;;;;;;14.80;67.10;;;;;;4120593;28;19921;-85
2023/07/11 02:19:37;;;;;;;;;;;14.80;68.30;;;;;;4121926;28;19924;-85
2023/07/11 02:21:57;;;;;;;;;;;14.70;67.60;;;;;;4123485;28;19925;-85
2023/07/11 02:24:18;;;;;;;;;;;14.70;67.70;;;;;;4126177;28;19925;-85
2023/07/11 02:26:39;;;;;;;;;;;14.70;67.80;;;;;;4121607;28;19918;-85
2023/07/11 02:29:00;;;;;;;;;;;14.60;67.60;;;;;;4124380;28;19964;-85
2023/07/11 02:31:20;;;;;;;;;;;14.60;67.80;;;;;;4126392;28;20082;-87
2023/07/11 02:33:41;;;;;;;;;;;14.60;67.80;;;;;;4127945;28;19917;-85
2023/07/11 02:36:01;;;;;;;;;;;14.60;67.70;;;;;;4123272;28;19982;-85
2023/07/11 02:38:22;;;;;;;;;;;14.50;67.70;;;;;;4122604;28;19913;-87
2023/07/11 02:40:43;;;;;;;;;;;14.50;67.80;;;;;;4121937;28;20660;-88
2023/07/11 02:43:03;;;;;;;;;;;14.50;67.80;;;;;;4126083;28;19918;-87
2023/07/11 02:45:24;;;;;;;;;;;14.40;67.70;;;;;;4136903;28;19925;-85
2023/07/11 02:47:45;;;;;;;;;;;14.50;67.90;;;;;;4125226;28;19964;-86
2023/07/11 02:50:06;;;;;;;;;;;14.40;68.00;;;;;;4120634;28;20009;-86
2023/07/11 02:52:27;;;;;;;;;;;14.40;68.10;;;;;;4121823;28;19913;-85
2023/07/11 02:54:47;;;;;;;;;;;14.30;68.00;;;;;;4125337;28;19922;-85
2023/07/11 02:57:08;;;;;;;;;;;14.30;67.90;;;;;;4124589;28;19918;-86
2023/07/11 02:59:09;;;;;;;;;;;14.30;68.30;;;;;;4110199;28;19929;-87
2023/07/11 03:01:11;;;;;;;;;;;14.20;68.00;;;;;;4121992;28;19922;-85
2023/07/11 03:03:12;;;;;;;;;;;14.20;67.90;;;;;;4117083;28;19968;-87
2023/07/11 03:05:19;;;;;;;;;;;14.20;68.20;;;;;;4104328;28;19926;-87
2023/07/11 03:07:40;;;;;;;;;;;14.20;68.20;;;;;;4120910;28;19922;-86
2023/07/11 03:09:41;;;;;;;;;;;14.20;68.10;;;;;;4123639;28;20444;-87
2023/07/11 03:12:02;;;;;;;;;;;14.20;68.20;;;;;;4120872;28;20529;-86
2023/07/11 03:14:15;;;;;;;;;;;14.10;68.20;;;;;;4123137;28;19925;-85
2023/07/11 03:16:36;;;;;;;;;;;14.10;68.30;;;;;;4118526;28;20395;-85
2023/07/11 03:18:57;;;;;;;;;;;14.10;68.10;;;;;;4125404;28;19928;-89
2023/07/11 03:21:17;;;;;;;;;;;14.10;68.00;;;;;;4124533;28;20426;-86
2023/07/11 03:23:41;;;;;;;;;;;14.10;68.10;;;;;;4125064;28;19966;-85
2023/07/11 03:26:01;;;;;;;;;;;14.10;68.10;;;;;;4127818;28;19969;-88
2023/07/11 03:28:22;;;;;;;;;;;14.00;68.00;;;;;;4132283;28;19917;-86
2023/07/11 03:30:43;;;;;;;;;;;14.10;68.30;;;;;;4119468;28;20443;-87
2023/07/11 03:32:43;;;;;;;;;;;14.10;68.80;;;;;;4135315;28;19961;-84
2023/07/11 03:34:44;;;;;;;;;;;14.20;68.90;;;;;;4118912;28;19921;-86
2023/07/11 03:36:52;;;;;;;;;;;14.10;68.90;;;;;;4123730;28;20044;-85
2023/07/11 03:38:52;;;;;;;;;;;14.20;68.70;;;;;;4122680;28;19914;-86
2023/07/11 03:40:53;;;;;;;;;;;14.10;68.50;;;;;;4123499;28;19924;-85
2023/07/11 03:42:54;;;;;;;;;;;14.20;68.60;;;;;;4110231;28;19964;-87
2023/07/11 03:44:54;;;;;;;;;;;14.20;68.40;;;;;;4107422;28;19926;-85
2023/07/11 03:46:55;;;;;;;;;;;14.20;68.50;;;;;;4127963;28;19917;-88
2023/07/11 03:49:00;;;;;;;;;;;14.20;68.50;;;;;;4126585;28;19914;-85
2023/07/11 03:51:03;;;;;;;;;;;14.20;68.60;;;;;;4124316;28;20000;-87
2023/07/11 03:53:05;;;;;;;;;;;14.30;68.90;;;;;;4107344;28;19929;-86
2023/07/11 03:55:06;;;;;;;;;;;14.20;68.90;;;;;;4128800;28;19914;-85
2023/07/11 03:57:16;;;;;;;;;;;14.30;69.30;;;;;;4121370;28;19996;-87
2023/07/11 03:59:36;;;;;;;;;;;14.30;69.60;;;;;;4128734;28;19914;-83
2023/07/11 04:01:37;;;;;;;;;;;14.40;70.10;;;;;;4109048;28;20006;-86
2023/07/11 04:03:58;;;;;;;;;;;14.50;70.80;;;;;;4128878;28;20376;-87
2023/07/11 04:06:19;;;;;;;;;;;14.50;71.20;;;;;;4125954;28;20364;-85
2023/07/11 04:08:19;;;;;;;;;;;14.40;71.20;;;;;;4130035;28;19914;-84
2023/07/11 04:10:40;;;;;;;;;;;14.60;71.30;;;;;;4128476;28;19914;-88
2023/07/11 04:13:01;;;;;;;;;;;14.70;71.20;;;;;;4124251;28;20021;-84
2023/07/11 04:15:02;;;;;;;;;;;14.70;71.80;;;;;;4126036;28;20410;-85
2023/07/11 04:17:23;;;;;;;;;;;14.70;72.00;;;;;;4126865;28;20414;-88
2023/07/11 04:19:43;;;;;;;;;;;14.90;71.10;;;;;;4126374;28;20653;-83
2023/07/11 04:22:06;;;;;;;;;;;14.90;72.20;;;;;;4125149;28;20434;-85
2023/07/11 04:24:27;;;;;;;;;;;15.00;72.80;;;;;;4124870;28;20384;-86
2023/07/11 04:26:47;;;;;;;;;;;15.10;73.80;;;;;;4125951;28;20373;-84
2023/07/11 04:29:08;;;;;;;;;;;15.30;74.20;;;;;;4125819;28;20376;-85
2023/07/11 04:31:29;;;;;;;;;;;15.40;73.80;;;;;;4122438;28;20510;-85
2023/07/11 04:33:49;;;;;;;;;;;15.60;73.90;;;;;;4127571;28;20411;-86
2023/07/11 04:36:12;;;;;;;;;;;15.70;73.40;;;;;;4130056;28;21509;-86
2023/07/11 04:38:32;;;;;;;;;;;15.70;73.20;;;;;;4126185;28;20669;-85
2023/07/11 04:40:53;;;;;;;;;;;15.80;72.90;;;;;;4126459;28;20365;-85
2023/07/11 04:43:13;;;;;;;;;;;15.90;72.60;;;;;;4126902;28;20657;-85
2023/07/11 04:45:34;;;;;;;;;;;16.10;71.40;;;;;;4124698;28;20342;-86
2023/07/11 04:47:55;;;;;;;;;;;16.10;70.80;;;;;;4126748;28;20404;-84
2023/07/11 04:50:15;;;;;;;;;;;16.10;70.70;;;;;;4124360;28;19973;-83
2023/07/11 04:52:36;;;;;;;;;;;16.10;70.00;;;;;;4125403;28;20297;-87
2023/07/11 04:54:56;;;;;;;;;;;16.20;70.20;;;;;;4122286;28;20472;-88
2023/07/11 04:57:17;;;;;;;;;;;16.20;70.10;;;;;;4126187;28;19917;-84
2023/07/11 04:59:18;;;;;;;;;;;16.20;70.20;;;;;;4125666;28;19969;-86
2023/07/11 05:01:18;;;;;;;;;;;16.20;70.30;;;;;;4106031;28;19914;-82
2023/07/11 05:03:22;;;;;;;;;;;16.20;69.80;;;;;;4123208;28;19914;-85
2023/07/11 05:05:23;;;;;;;;;;;16.30;69.50;;;;;;4121244;28;20918;-86
2023/07/11 05:07:23;;;;;;;;;;;16.30;69.40;;;;;;4123261;28;20024;-85
2023/07/11 05:09:25;;;;;;;;;;;16.30;69.30;;;;;;4125716;28;19918;-85
2023/07/11 05:11:25;;;;;;;;;;;16.30;69.50;;;;;;4123350;28;19922;-85
2023/07/11 05:13:27;;;;;;;;;;;16.30;69.50;;;;;;4108042;28;20447;-86
2023/07/11 05:15:48;;;;;;;;;;;16.40;69.10;;;;;;4120462;28;20300;-84
2023/07/11 05:18:08;;;;;;;;;;;16.40;69.00;;;;;;4121364;28;20254;-86
2023/07/11 05:20:29;;;;;;;;;;;16.40;69.10;;;;;;4121431;28;20264;-85
2023/07/11 05:22:50;;;;;;;;;;;16.40;68.80;;;;;;4123113;28;20284;-87
2023/07/11 05:25:10;;;;;;;;;;;16.50;68.80;;;;;;4119722;28;19922;-85
2023/07/11 05:27:31;;;;;;;;;;;16.50;68.30;;;;;;4124116;28;19952;-85
2023/07/11 05:29:51;;;;;;;;;;;16.50;68.80;;;;;;4125848;28;19952;-86
2023/07/11 05:32:12;;;;;;;;;;;16.60;69.70;;;;;;4125788;28;20354;-86
2023/07/11 05:34:33;;;;;;;;;;;16.60;69.40;;;;;;4122530;28;20569;-83
2023/07/11 05:36:34;;;;;;;;;;;16.60;69.00;;;;;;4121033;28;19921;-84
2023/07/11 05:38:35;;;;;;;;;;;16.60;69.30;;;;;;4121326;28;19922;-86
2023/07/11 05:40:35;;;;;;;;;;;16.70;69.60;;;;;;4117918;28;19925;-87
2023/07/11 05:42:36;;;;;;;;;;;16.70;69.30;;;;;;4121284;28;19928;-84
2023/07/11 05:44:37;;;;;;;;;;;16.70;69.20;;;;;;4107150;28;20000;-85
2023/07/11 05:46:38;;;;;;;;;;;16.80;69.20;;;;;;4121053;28;19994;-85
2023/07/11 05:48:38;;;;;;;;;;;16.80;68.90;;;;;;4123622;28;20592;-83
2023/07/11 05:51:00;;;;;;;;;;;16.80;69.00;;;;;;4125417;28;19924;-83
2023/07/11 05:53:20;;;;;;;;;;;16.90;68.70;;;;;;4121512;28;22198;-86
2023/07/11 05:55:22;;;;;;;;;;;16.90;68.70;;;;;;4115546;28;19929;-86
2023/07/11 05:57:42;;;;;;;;;;;17.10;68.90;;;;;;4133159;28;20284;-88
2023/07/11 06:00:09;;;;;;;;;;;17.10;68.30;;;;;;4133987;28;19960;-85
2023/07/11 06:02:33;;;;;;;;;;;17.10;68.10;;;;;;4123372;28;20925;-87
2023/07/11 06:04:56;;;;;;;;;;;17.20;68.20;;;;;;4122675;28;20481;-84
2023/07/11 06:07:16;;;;;;;;;;;17.10;68.00;;;;;;4120806;28;19925;-86
2023/07/11 06:09:37;;;;;;;;;;;17.30;67.70;;;;;;4109635;28;19997;-85
2023/07/11 06:11:57;;;;;;;;;;;17.30;67.40;;;;;;4122262;28;19953;-86
2023/07/11 06:14:22;;;;;;;;;;;17.40;67.40;;;;;;4117969;28;19944;-84
2023/07/11 06:16:26;;;;;;;;;;;17.50;67.80;;;;;;4117697;28;19918;-83
2023/07/11 06:18:32;;;;;;;;;;;17.50;68.20;;;;;;4118677;28;20024;-85
2023/07/11 06:20:33;;;;;;;;;;;17.60;68.00;;;;;;4119241;28;20503;-86
2023/07/11 06:22:39;;;;;;;;;;;17.70;67.70;;;;;;4106500;28;19968;-85
2023/07/11 06:25:00;;;;;;;;;;;17.80;67.70;;;;;;4124727;28;19922;-86
2023/07/11 06:27:20;;;;;;;;;;;17.90;67.90;;;;;;4125345;28;20058;-82
2023/07/11 06:30:01;;;;;;;;;;;18.00;68.70;;;;;;4120006;28;19922;-85
2023/07/11 06:32:22;;;;;;;;;;;18.20;68.10;;;;;;4135913;28;19944;-84
2023/07/11 06:34:42;;;;;;;;;;;18.30;68.00;;;;;;4125208;28;19922;-85
2023/07/11 06:37:03;;;;;;;;;;;18.50;68.20;;;;;;4124972;28;19922;-84
2023/07/11 06:39:04;;;;;;;;;;;18.60;67.70;;;;;;4123912;28;19922;-84
2023/07/11 06:41:04;;;;;;;;;;;18.70;67.50;;;;;;4123320;28;19986;-84
2023/07/11 06:43:26;;;;;;;;;;;18.80;67.60;;;;;;4120128;28;19981;-83
2023/07/11 06:45:55;;;;;;;;;;;18.90;67.40;;;;;;4132227;28;20252;-87
2023/07/11 06:48:16;;;;;;;;;;;19.10;67.30;;;;;;4117934;28;19922;-82
2023/07/11 06:50:37;;;;;;;;;;;19.20;66.70;;;;;;4128289;28;19921;-85
2023/07/11 06:52:43;;;;;;;;;;;19.30;66.70;;;;;;4116509;28;20544;-85
2023/07/11 06:55:04;;;;;;;;;;;19.40;66.40;;;;;;4113244;28;19926;-83
2023/07/11 06:57:25;;;;;;;;;;;19.50;66.30;;;;;;4119849;28;19922;-86
2023/07/11 06:59:47;;;;;;;;;;;19.60;66.10;;;;;;4119772;28;20003;-84
2023/07/11 07:02:11;;;;;;;;;;;19.70;65.60;;;;;;4117149;28;19922;-83
2023/07/11 07:04:32;;;;;;;;;;;19.80;65.60;;;;;;4119525;28;19925;-83
2023/07/11 07:06:52;;;;;;;;;;;19.90;65.40;;;;;;4119307;28;19914;-84
2023/07/11 07:09:13;;;;;;;;;;;20.00;65.40;;;;;;4116116;28;19918;-87
2023/07/11 07:11:15;;;;;;;;;;;20.10;65.30;;;;;;4117124;28;19973;-84
2023/07/11 07:13:17;;;;;;;;;;;20.20;65.30;;;;;;4119448;28;19922;-84
2023/07/11 07:15:17;;;;;;;;;;;20.20;65.20;;;;;;4112563;28;19922;-84
2023/07/11 07:17:18;;;;;;;;;;;20.30;65.20;;;;;;4114897;28;19957;-85
2023/07/11 07:19:19;;;;;;;;;;;20.40;65.00;;;;;;4117512;28;20388;-83
2023/07/11 07:21:20;;;;;;;;;;;20.50;65.10;;;;;;4116998;28;20212;-84
2023/07/11 07:23:20;;;;;;;;;;;20.60;65.00;;;;;;4120921;28;19999;-87
2023/07/11 07:25:41;;;;;;;;;;;20.70;65.10;;;;;;4117436;28;20380;-85
2023/07/11 07:28:02;;;;;;;;;;;20.80;65.00;;;;;;4119129;28;19929;-83
2023/07/11 07:30:23;;;;;;;;;;;21.00;64.80;;;;;;4122644;28;20512;-84
2023/07/11 07:32:43;;;;;;;;;;;21.10;64.70;;;;;;4122257;28;19914;-83
2023/07/11 07:34:44;;;;;;;;;;;21.30;64.60;;;;;;4121300;28;19922;-85
2023/07/11 07:36:45;;;;;;;;;;;21.40;64.50;;;;;;4103248;28;19948;-86
2023/07/11 07:38:48;;;;;;;;;;;21.40;63.60;;;;;;4114133;28;19945;-87
2023/07/11 07:40:51;;;;;;;;;;;21.60;63.80;;;;;;4136293;28;19960;-83
2023/07/11 07:43:19;;;;;;;;;;;21.70;63.40;;;;;;4122141;28;19960;-86
2023/07/11 07:45:47;;;;;;;;;;;21.90;63.30;;;;;;4117736;28;19922;-84
2023/07/11 07:48:08;;;;;;;;;;;22.00;62.80;;;;;;4126286;28;19925;-84
2023/07/11 07:50:28;;;;;;;;;;;22.10;62.50;;;;;;4122224;28;19936;-85
2023/07/11 07:52:52;;;;;;;;;;;22.10;62.30;;;;;;4123230;28;19942;-85
2023/07/11 07:55:13;;;;;;;;;;;22.20;62.30;;;;;;4121368;28;19926;-84
2023/07/11 07:57:13;;;;;;;;;;;22.20;61.80;;;;;;4107236;28;20512;-85
2023/07/11 07:59:14;;;;;;;;;;;22.30;61.60;;;;;;4121106;28;20005;-85
2023/07/11 08:01:17;;;;;;;;;;;22.50;61.70;;;;;;4124293;28;20072;-84
2023/07/11 08:03:48;;;;;;;;;;;22.50;61.50;;;;;;4126065;28;19917;-84
2023/07/11 08:06:09;;;;;;;;;;;22.60;61.50;;;;;;4121675;28;20016;-87
2023/07/11 08:08:36;;;;;;;;;;;22.70;61.30;;;;;;4122606;28;19949;-84
2023/07/11 08:11:16;;;;;;;;;;;22.80;61.20;;;;;;4119523;28;19918;-86
2023/07/11 08:13:45;;;;;;;;;;;23.00;61.00;;;;;;4122520;28;20539;-85
2023/07/11 08:16:02;;;;;;;;;;;23.10;60.80;;;;;;4106237;28;19976;-85
2023/07/11 08:18:40;;;;;;;;;;;23.20;60.60;;;;;;4119568;28;20016;-87
2023/07/11 08:21:01;;;;;;;;;;;23.30;60.20;;;;;;4042265;29;19923;-88
2023/07/11 08:23:23;;;;;;;;;;;23.50;58.90;;;;;;4068849;29;20009;-85
2023/07/11 08:25:43;;;;;;;;;;;23.60;59.10;;;;;;4069428;29;19934;-86
2023/07/11 08:28:07;;;;;;;;;;;23.70;59.10;;;;;;4066593;29;20741;-86
2023/07/11 08:30:28;;;;;;;;;;;23.90;58.60;;;;;;4070191;29;19922;-86
2023/07/11 08:32:48;;;;;;;;;;;24.00;58.30;;;;;;4067761;29;20008;-84
2023/07/11 08:35:09;;;;;;;;;;;24.10;57.70;;;;;;4072971;29;19922;-83
2023/07/11 08:37:10;;;;;;;;;;;24.20;58.00;;;;;;4068715;29;21131;-85
2023/07/11 08:39:13;;;;;;;;;;;24.30;56.60;;;;;;4071672;29;19923;-85
2023/07/11 08:41:20;;;;;;;;;;;24.40;56.70;;;;;;4065461;29;20600;-84
2023/07/11 08:43:23;;;;;;;;;;;24.50;56.40;;;;;;4064210;29;20062;-85
2023/07/11 08:45:57;;;;;;;;;;;24.50;56.10;;;;;;4073206;29;20006;-84
2023/07/11 08:48:18;;;;;;;;;;;24.60;56.20;;;;;;4073282;29;19973;-84
2023/07/11 08:51:04;;;;;;;;;;;24.60;55.90;;;;;;4059691;29;19926;-84
2023/07/11 08:53:05;;;;;;;;;;;24.70;55.90;;;;;;4051660;29;19986;-85
2023/07/11 08:55:29;;;;;;;;;;;24.80;55.70;;;;;;4071863;29;19925;-88
2023/07/11 08:58:04;;;;;;;;;;;24.80;54.70;;;;;;4088356;28;19926;-85
2023/07/11 09:00:12;;;;;;;;;;;24.90;54.60;;;;;;4120776;28;19921;-89
2023/07/11 09:02:40;;;;;;;;;;;24.90;54.60;;;;;;4121343;28;19918;-86
2023/07/11 09:05:01;;;;;;;;;;;25.00;54.60;;;;;;4133719;28;19988;-83
2023/07/11 09:07:36;;;;;;;;;;;25.10;54.70;;;;;;4120810;28;19917;-86
2023/07/11 09:09:57;;;;;;;;;;;25.20;54.40;;;;;;4123014;28;19922;-84
2023/07/11 09:12:13;;;;;;;;;;;25.30;54.30;;;;;;4134386;28;19921;-85
2023/07/11 09:14:33;;;;;;;;;;;25.50;54.00;;;;;;4126459;28;19914;-86
2023/07/11 09:16:35;;;;;;;;;;;25.50;53.00;;;;;;4122413;28;19965;-86
2023/07/11 09:18:42;;;;;;;;;;;25.60;53.30;;;;;;4122503;28;19917;-83
2023/07/11 09:21:09;;;;;;;;;;;25.70;53.40;;;;;;4120799;28;19917;-82
2023/07/11 09:23:48;;;;;;;;;;;25.70;52.60;;;;;;4123454;28;19913;-84
2023/07/11 09:26:20;;;;;;;;;;;25.70;52.80;;;;;;4119685;28;19984;-84
2023/07/11 09:28:41;;;;;;;;;;;25.80;52.50;;;;;;4122364;28;19925;-85
2023/07/11 09:31:05;;;;;;;;;;;25.90;52.70;;;;;;4123500;28;19914;-85
2023/07/11 09:33:29;;;;;;;;;;;25.90;52.00;;;;;;4124006;28;19925;-84
2023/07/11 09:35:32;;;;;;;;;;;25.90;52.00;;;;;;4122234;28;19956;-84
2023/07/11 09:37:36;;;;;;;;;;;25.90;52.40;;;;;;4123473;28;19918;-85
2023/07/11 09:39:48;;;;;;;;;;;26.00;52.00;;;;;;4105597;28;19914;-85
2023/07/11 09:42:09;;;;;;;;;;;26.10;52.40;;;;;;4121633;28;20005;-85
2023/07/11 09:44:29;;;;;;;;;;;26.10;52.00;;;;;;4120475;28;19922;-84
2023/07/11 09:46:50;;;;;;;;;;;26.20;52.20;;;;;;4120094;28;19918;-86
2023/07/11 09:49:19;;;;;;;;;;;26.20;52.20;;;;;;4121928;28;19975;-84
2023/07/11 09:51:24;;;;;;;;;;;26.30;51.10;;;;;;4120856;28;19921;-87
2023/07/11 09:53:28;;;;;;;;;;;26.30;51.90;;;;;;4118650;28;19941;-83
2023/07/11 09:55:52;;;;;;;;;;;26.40;52.00;;;;;;4118078;28;19918;-84
2023/07/11 09:58:19;;;;;;;;;;;26.50;52.00;;;;;;4120762;28;19921;-85
2023/07/11 10:00:44;;;;;;;;;;;26.50;51.50;;;;;;4127988;28;20020;-86
2023/07/11 10:03:05;;;;;;;;;;;26.60;51.10;;;;;;4123256;28;20009;-86
2023/07/11 10:05:25;;;;;;;;;;;26.60;51.50;;;;;;4133345;28;20103;-85
2023/07/11 10:07:30;;;;;;;;;;;26.70;51.40;;;;;;4119238;28;20429;-84
2023/07/11 10:09:32;;;;;;;;;;;26.70;50.20;;;;;;4119068;28;19918;-83
2023/07/11 10:11:33;;;;;;;;;;;26.70;50.20;;;;;;4123286;28;19984;-85
2023/07/11 10:13:33;;;;;;;;;;;26.80;50.20;;;;;;4119531;28;20303;-85
2023/07/11 10:15:37;;;;;;;;;;;26.90;49.20;;;;;;4121915;28;19922;-85
2023/07/11 10:17:57;;;;;;;;;;;26.90;49.10;;;;;;4120316;28;19921;-84
2023/07/11 10:19:59;;;;;;;;;;;26.90;48.40;;;;;;4123840;28;20304;-88
2023/07/11 10:22:20;;;;;;;;;;;27.00;48.60;;;;;;4122629;28;20008;-85
2023/07/11 10:24:42;;;;;;;;;;;27.00;48.90;;;;;;4122505;28;19929;-85
2023/07/11 10:27:05;;;;;;;;;;;27.00;49.00;;;;;;4120272;28;19922;-86
2023/07/11 10:29:27;;;;;;;;;;;27.10;48.60;;;;;;4121341;28;19964;-84
2023/07/11 10:31:51;;;;;;;;;;;27.10;49.10;;;;;;4119235;28;19925;-86
2023/07/11 10:34:01;;;;;;;;;;;27.10;49.00;;;;;;4122868;28;19928;-86
2023/07/11 10:36:15;;;;;;;;;;;27.10;48.70;;;;;;4122235;28;19976;-86
2023/07/11 10:38:18;;;;;;;;;;;27.20;48.60;;;;;;4123016;28;19973;-87
2023/07/11 10:40:37;;;;;;;;;;;27.20;48.70;;;;;;4138821;28;19918;-84
2023/07/11 10:42:57;;;;;;;;;;;27.20;48.90;;;;;;4122617;28;19922;-84
2023/07/11 10:45:20;;;;;;;;;;;27.30;48.80;;;;;;4120710;28;19921;-84
2023/07/11 10:48:06;;;;;;;;;;;27.40;46.60;;;;;;4123919;28;19914;-85
2023/07/11 10:50:30;;;;;;;;;;;27.50;48.70;;;;;;4087563;28;19915;-85
2023/07/11 10:52:53;;;;;;;;;;;27.60;49.00;;;;;;4088773;28;19919;-85
2023/07/11 10:54:53;;;;;;;;;;;27.70;47.40;;;;;;4071768;29;19941;-86
2023/07/11 10:57:05;;;;;;;;;;;27.80;48.00;;;;;;4089220;28;20080;-85
2023/07/11 10:59:27;;;;;;;;;;;27.90;47.90;;;;;;4072902;28;19919;-84
2023/07/11 11:02:10;;;;;;;;;;;27.90;47.40;;;;;;4144292;23;19940;-89
2023/07/11 11:04:52;;;;;;;;;;;28.00;46.40;;;;;;4072938;29;19938;-85
2023/07/11 11:07:23;;;;;;;;;;;28.10;47.40;;;;;;4071797;28;20391;-86
2023/07/11 11:09:53;;;;;;;;;;;28.10;47.10;;;;;;4125466;28;19917;-85
2023/07/11 11:12:53;;;;;;;;;;;28.20;47.10;;;;;;4141773;23;19933;-84
2023/07/11 11:14:52;;;;;;;;;;;28.20;46.50;;;;;;4120547;28;20094;-85
2023/07/11 11:17:05;;;;;;;;;;;28.30;46.80;;;;;;4121517;28;19932;-85
2023/07/11 11:19:29;;;;;;;;;;;28.30;45.60;;;;;;4124560;28;20106;-84
2023/07/11 11:21:55;;;;;;;;;;;28.40;45.40;;;;;;4121518;28;20360;-86
2023/07/11 11:24:16;;;;;;;;;;;28.50;45.00;;;;;;4119674;28;19921;-84
2023/07/11 11:26:39;;;;;;;;;;;28.50;44.40;;;;;;4119861;28;20012;-84
2023/07/11 11:29:05;;;;;;;;;;;28.50;44.50;;;;;;4117422;28;19918;-86
2023/07/11 11:31:27;;;;;;;;;;;28.60;44.40;;;;;;4119423;28;19914;-85
2023/07/11 11:33:48;;;;;;;;;;;28.60;44.90;;;;;;4116777;28;19922;-86
2023/07/11 11:36:20;;;;;;;;;;;28.60;41.90;;;;;;4118388;28;19925;-86
2023/07/11 11:39:00;;;;;;;;;;;28.60;44.00;;;;;;4119057;28;19969;-88
2023/07/11 11:41:28;;;;;;;;;;;28.60;43.20;;;;;;4135497;28;19913;-85
2023/07/11 11:43:29;;;;;;;;;;;28.60;43.50;;;;;;4124460;28;19922;-84
2023/07/11 11:45:31;;;;;;;;;;;28.70;43.10;;;;;;4122267;28;19921;-87
2023/07/11 11:47:53;;;;;;;;;;;28.70;43.20;;;;;;4121362;28;19960;-85
2023/07/11 11:50:15;;;;;;;;;;;28.70;43.00;;;;;;4115021;28;19914;-84
2023/07/11 11:52:32;;;;;;;;;;;28.70;42.40;;;;;;4123013;28;19913;-86
2023/07/11 11:54:53;;;;;;;;;;;28.70;43.40;;;;;;4121283;28;19917;-87
2023/07/11 11:57:22;;;;;;;;;;;28.80;43.60;;;;;;4121530;28;20013;-86
2023/07/11 11:59:44;;;;;;;;;;;28.80;43.70;;;;;;4122521;28;20009;-85
2023/07/11 12:02:21;;;;;;;;;;;28.90;42.70;;;;;;4116533;28;19918;-85
2023/07/11 12:05:02;;;;;;;;;;;28.90;43.20;;;;;;4118458;28;19922;-86
2023/07/11 12:07:25;;;;;;;;;;;28.90;42.60;;;;;;4116922;28;19917;-84
2023/07/11 12:09:47;;;;;;;;;;;29.00;41.40;;;;;;4120268;28;20444;-85
2023/07/11 12:12:05;;;;;;;;;;;29.00;41.90;;;;;;4120434;28;19965;-86
2023/07/11 12:14:10;;;;;;;;;;;29.00;41.50;;;;;;4115465;28;20400;-88
2023/07/11 12:16:32;;;;;;;;;;;29.00;41.10;;;;;;4123705;28;20295;-86
2023/07/11 12:18:57;;;;;;;;;;;29.10;41.50;;;;;;4113185;28;19913;-86
2023/07/11 12:21:13;;;;;;;;;;;29.00;40.60;;;;;;4132441;28;19918;-85
2023/07/11 12:23:14;;;;;;;;;;;29.00;40.10;;;;;;4116040;28;19922;-84
2023/07/11 12:25:30;;;;;;;;;;;29.00;40.10;;;;;;4120973;28;19926;-86
2023/07/11 12:27:31;;;;;;;;;;;29.00;40.20;;;;;;4122510;28;19914;-87
2023/07/11 12:29:37;;;;;;;;;;;28.90;40.60;;;;;;4120170;28;19922;-84
2023/07/11 12:31:38;;;;;;;;;;;28.90;39.60;;;;;;4122451;28;19933;-83
2023/07/11 12:33:39;;;;;;;;;;;29.00;40.60;;;;;;4104732;28;19949;-85
2023/07/11 12:35:40;;;;;;;;;;;28.90;40.30;;;;;;4122466;28;20013;-84
2023/07/11 12:38:00;;;;;;;;;;;28.90;40.80;;;;;;4122362;28;19922;-85
2023/07/11 12:40:40;;;;;;;;;;;28.90;40.10;;;;;;4117035;28;20032;-85
2023/07/11 12:43:02;;;;;;;;;;;28.90;40.90;;;;;;4130572;28;19972;-85
2023/07/11 12:45:23;;;;;;;;;;;28.90;41.00;;;;;;4120299;28;19918;-85
2023/07/11 12:47:45;;;;;;;;;;;28.90;40.90;;;;;;4119647;28;20008;-87
2023/07/11 12:50:15;;;;;;;;;;;29.00;41.10;;;;;;4119972;28;19928;-87
2023/07/11 12:52:35;;;;;;;;;;;29.00;40.50;;;;;;4119713;28;19928;-85
2023/07/11 12:54:36;;;;;;;;;;;29.00;41.10;;;;;;4123801;28;19913;-87
2023/07/11 12:56:49;;;;;;;;;;;29.00;41.20;;;;;;4123731;28;20008;-84
2023/07/11 12:58:50;;;;;;;;;;;29.10;39.90;;;;;;4119040;28;20355;-85
2023/07/11 13:00:53;;;;;;;;;;;29.10;39.50;;;;;;4120573;28;19917;-84
2023/07/11 13:02:56;;;;;;;;;;;29.20;39.80;;;;;;4120752;28;19952;-83
2023/07/11 13:05:17;;;;;;;;;;;29.20;39.70;;;;;;4118014;28;19922;-85
2023/07/11 13:07:37;;;;;;;;;;;29.20;40.30;;;;;;4121466;28;19952;-86
2023/07/11 13:10:00;;;;;;;;;;;29.20;40.80;;;;;;4122224;28;19969;-85
2023/07/11 13:12:22;;;;;;;;;;;29.30;40.20;;;;;;4123184;28;19921;-87